Impacts METAR Board
IDs:

KPWG - Mc Gregor Executive, TX, US

Updated at: 0800 UTC 26 May 2019
Potential Impact None Slight Moderate High
Time 25/20Z 25/21Z 25/22Z 25/23Z 26/00Z 26/01Z 26/02Z 26/03Z 26/04Z 26/05Z 26/06Z 26/07Z 26/08Z
Temp89 92 91 89 88 84 81 80 78 77 76 74 73
Dewpt71 71 70 70 70 68 68 68 68 68 69 69 70
Altim30.01 29.99 29.97 29.96 29.95 29.95 29.96 29.98 30.00 30.01 30.02 30.02 30.02
VIS10 10 10 10 10 10 10 10 10 10 10 10 10
CIG-- -- -- -- -- -- -- -- -- -- -- -- 18
CoverSCTSCTSCTFEWCLRCLRCLRCLRCLRCLRCLRCLRBKN
FltCatVFRVFRVFRVFRVFRVFRVFRVFRVFRVFRVFRVFRMVFR
WX--------------------------
WDir160160150140140150150160170170170160150
WSpd16 13 15 17 14 10 11 12 9 10 10 10 9
WGst-- -- -- 22 -- -- -- -- -- -- -- -- --
Raw hourly METARs
KPWG 251956Z AUTO 16016KT 10SM SCT041 32/22 A3001 RMK AO2 SLP165 T03170217
KPWG 252056Z AUTO 16013KT 10SM SCT043 SCT050 SCT070 33/22 A2999 RMK AO2 SLP157 T03330217 56021
KPWG 252156Z AUTO 15015KT 10SM SCT048 33/21 A2997 RMK AO2 SLP152 T03280211
KPWG 252256Z AUTO 14017G22KT 10SM FEW049 32/21 A2996 RMK AO2 SLP150 T03170211
KPWG 252356Z AUTO 14014KT 10SM CLR 31/21 A2995 RMK AO2 SLP146 T03110211 10333 20306 56012
KPWG 260056Z AUTO 15010KT 10SM CLR 29/20 A2995 RMK AO2 SLP146 T02890200
KPWG 260156Z AUTO 15011KT 10SM CLR 27/20 A2996 RMK AO2 SLP150 T02720200
KPWG 260256Z AUTO 16012KT 10SM CLR 27/20 A2998 RMK AO2 SLP156 T02670200 53010
KPWG 260356Z AUTO 17009KT 10SM CLR 26/20 A3000 RMK AO2 SLP161 T02560200
KPWG 260456Z AUTO 17010KT 10SM CLR 25/20 A3001 RMK AO2 SLP165 T02500200
KPWG 260556Z AUTO 17010KT 10SM CLR 24/21 A3002 RMK AO2 SLP170 T02440206 10306 20244 403330217 53014
KPWG 260656Z AUTO 16010KT 10SM CLR 23/21 A3002 RMK AO2 SLP169 T02330206
KPWG 260756Z AUTO 15009KT 10SM BKN018 23/21 A3002 RMK AO2 SLP168 T02280211